Twin Springs, Nevada Weather observations

Data are for observation ending at time listed.
 Day   Time    Ave.   Ave.  Ave.  Vector   Max.   Stn.    Total    Solar   Ave.  
  of    of     Air    Rel.  Wind   Wind    Wind   Baro.  Precip.   Rad.    Soil  
Year   Day     Temp.  Hum.  Speed  Dir.    Gust   Pres.                    Temp. 
2015   (PST)    F      %     mph   deg.    mph     mb.     in.     W/m2     F   
------------------------------------------------------------------------------
 208    6:00   64.1    24    4.1   342     10.7    842     0.00      77    77.2
 208    7:00   71.7    17    3.1   278      8.7    843     0.00     315    76.3
 208    8:00   73.6    16    6.2   311     11.2    843     0.00     542    76.0
 208    9:00   75.5    12    5.9   319     14.4    844     0.00     746    76.3
 208   10:00   77.6    11    4.0   308     12.6    844     0.00     909    77.5
 208   11:00   80.0     9    3.8   275     10.2    844     0.00    1024    79.9
 208   12:00   81.9     9    4.6   285     12.4    844     0.00    1072    83.0
 208   13:00   83.2     9    5.8   302     14.4    843     0.00    1057    86.2
 208   14:00   85.0     8    5.7   316     18.2    843     0.00     983    88.5
 208   15:00   86.1     7    3.4   316     12.2    843     0.00     854    88.6
 208   16:00   86.9     7    3.0   289      9.6    842     0.00     673    87.8
 208   17:00   86.7     7    2.7   253     10.4    842     0.00     462    87.9
 208   18:00   85.7     8    3.5   355     19.8    842     0.00     246    88.7
 208   19:00   82.9    10    3.8   304     10.4    842     0.00      57    88.5
 208   20:00   77.6    12    2.9   297      7.4    843     0.00       1    87.5
 208   21:00   74.7    13    6.3   354     15.9    844     0.00       0    86.0
 208   22:00   72.4    14    8.9   350     17.4    845     0.00       0    84.6
 208   23:00   70.2    15    5.1    14     12.2    845     0.00       0    83.2
 209    0:00   67.1    19    3.8   344     10.6    846     0.00       0    82.0
 209    1:00   62.0    24    1.5   303      6.0    846     0.00       0    80.9
 209    2:00   59.5    26    1.6   130      4.9    846     0.00       0    79.6
 209    3:00   59.6    26    2.6    97      6.9    846     0.00       0    78.4
 209    4:00   55.7    30    1.0   358      5.0    847     0.00       0    77.2
 209    5:00   54.6    30    2.0   298      6.4    847     0.00       3    76.1

Return to Twin Springs, Nevada graphs page.


Western Regional Climate Center,wrcc@dri.edu